sensor_id;sensor_type;location;lat;lon;timestamp;temperature;humidity
36450;DHT22;22475;51.390;7.180;2022-12-05T00:00:22;6.10;94.90
36450;DHT22;22475;51.390;7.180;2022-12-05T00:02:51;6.10;94.90
36450;DHT22;22475;51.390;7.180;2022-12-05T00:05:17;6.10;94.90
36450;DHT22;22475;51.390;7.180;2022-12-05T00:07:44;6.10;95.20
36450;DHT22;22475;51.390;7.180;2022-12-05T00:10:12;6.10;94.80
36450;DHT22;22475;51.390;7.180;2022-12-05T00:12:38;6.10;94.80
36450;DHT22;22475;51.390;7.180;2022-12-05T00:15:06;6.00;94.80
36450;DHT22;22475;51.390;7.180;2022-12-05T00:17:37;6.10;94.80
36450;DHT22;22475;51.390;7.180;2022-12-05T00:20:07;6.10;94.80
36450;DHT22;22475;51.390;7.180;2022-12-05T00:22:35;6.00;94.80
36450;DHT22;22475;51.390;7.180;2022-12-05T00:25:03;6.10;94.80
36450;DHT22;22475;51.390;7.180;2022-12-05T00:27:29;6.00;94.80
36450;DHT22;22475;51.390;7.180;2022-12-05T00:29:56;6.00;95.10
36450;DHT22;22475;51.390;7.180;2022-12-05T00:32:23;6.00;94.80
36450;DHT22;22475;51.390;7.180;2022-12-05T00:34:50;6.00;94.80
36450;DHT22;22475;51.390;7.180;2022-12-05T00:37:18;6.00;94.80
36450;DHT22;22475;51.390;7.180;2022-12-05T00:39:44;6.00;94.80
36450;DHT22;22475;51.390;7.180;2022-12-05T00:42:11;6.00;94.80
36450;DHT22;22475;51.390;7.180;2022-12-05T00:44:38;6.00;94.80
36450;DHT22;22475;51.390;7.180;2022-12-05T00:47:05;6.00;94.90
36450;DHT22;22475;51.390;7.180;2022-12-05T00:49:32;6.00;94.90
36450;DHT22;22475;51.390;7.180;2022-12-05T00:51:59;6.00;94.90
36450;DHT22;22475;51.390;7.180;2022-12-05T00:54:27;6.10;94.90
36450;DHT22;22475;51.390;7.180;2022-12-05T00:56:53;6.00;94.90
36450;DHT22;22475;51.390;7.180;2022-12-05T00:59:21;6.00;94.90
36450;DHT22;22475;51.390;7.180;2022-12-05T01:01:49;6.00;94.90
36450;DHT22;22475;51.390;7.180;2022-12-05T01:04:18;6.00;94.80
36450;DHT22;22475;51.390;7.180;2022-12-05T01:06:45;6.00;94.80
36450;DHT22;22475;51.390;7.180;2022-12-05T01:09:15;6.00;94.80
36450;DHT22;22475;51.390;7.180;2022-12-05T01:11:43;6.00;94.90
36450;DHT22;22475;51.390;7.180;2022-12-05T01:14:10;6.10;94.90
36450;DHT22;22475;51.390;7.180;2022-12-05T01:16:40;6.10;94.90
36450;DHT22;22475;51.390;7.180;2022-12-05T01:19:09;6.10;94.90
36450;DHT22;22475;51.390;7.180;2022-12-05T01:21:37;6.10;94.90
36450;DHT22;22475;51.390;7.180;2022-12-05T01:24:04;6.10;94.90
36450;DHT22;22475;51.390;7.180;2022-12-05T01:26:31;6.10;94.90
36450;DHT22;22475;51.390;7.180;2022-12-05T01:28:59;6.10;94.90
36450;DHT22;22475;51.390;7.180;2022-12-05T01:31:28;6.10;94.90
36450;DHT22;22475;51.390;7.180;2022-12-05T01:33:57;6.10;94.90
36450;DHT22;22475;51.390;7.180;2022-12-05T01:36:25;6.10;94.90
36450;DHT22;22475;51.390;7.180;2022-12-05T01:38:52;6.10;94.80
36450;DHT22;22475;51.390;7.180;2022-12-05T01:41:21;6.10;94.80
36450;DHT22;22475;51.390;7.180;2022-12-05T01:43:56;6.10;94.90
36450;DHT22;22475;51.390;7.180;2022-12-05T01:46:25;6.10;94.90
36450;DHT22;22475;51.390;7.180;2022-12-05T01:48:55;6.10;94.90
36450;DHT22;22475;51.390;7.180;2022-12-05T01:51:23;6.10;94.90
36450;DHT22;22475;51.390;7.180;2022-12-05T01:53:50;6.10;94.80
36450;DHT22;22475;51.390;7.180;2022-12-05T01:56:17;6.10;94.80
36450;DHT22;22475;51.390;7.180;2022-12-05T01:58:46;6.10;94.80
36450;DHT22;22475;51.390;7.180;2022-12-05T02:01:14;6.10;94.80
36450;DHT22;22475;51.390;7.180;2022-12-05T02:03:44;6.10;94.80
36450;DHT22;22475;51.390;7.180;2022-12-05T02:06:12;6.10;94.80
36450;DHT22;22475;51.390;7.180;2022-12-05T02:08:39;6.10;94.80
36450;DHT22;22475;51.390;7.180;2022-12-05T02:11:07;6.10;94.80
36450;DHT22;22475;51.390;7.180;2022-12-05T02:13:52;6.10;94.80
36450;DHT22;22475;51.390;7.180;2022-12-05T02:16:31;6.10;95.20
36450;DHT22;22475;51.390;7.180;2022-12-05T02:19:14;6.10;94.80
36450;DHT22;22475;51.390;7.180;2022-12-05T02:22:05;6.00;94.80
36450;DHT22;22475;51.390;7.180;2022-12-05T02:25:09;6.00;94.70
36450;DHT22;22475;51.390;7.180;2022-12-05T02:27:56;6.00;94.80
36450;DHT22;22475;51.390;7.180;2022-12-05T02:30:37;6.00;94.70
36450;DHT22;22475;51.390;7.180;2022-12-05T02:33:10;6.00;94.70
36450;DHT22;22475;51.390;7.180;2022-12-05T02:35:45;6.00;94.70
36450;DHT22;22475;51.390;7.180;2022-12-05T02:38:24;6.00;94.80
36450;DHT22;22475;51.390;7.180;2022-12-05T02:40:58;5.90;94.70
36450;DHT22;22475;51.390;7.180;2022-12-05T02:43:30;5.90;94.70
36450;DHT22;22475;51.390;7.180;2022-12-05T02:46:02;6.00;94.80
36450;DHT22;22475;51.390;7.180;2022-12-05T02:48:32;5.90;94.80
36450;DHT22;22475;51.390;7.180;2022-12-05T02:51:01;5.90;94.80
36450;DHT22;22475;51.390;7.180;2022-12-05T02:53:30;5.90;94.80
36450;DHT22;22475;51.390;7.180;2022-12-05T02:55:58;5.90;94.80
36450;DHT22;22475;51.390;7.180;2022-12-05T02:58:32;5.90;94.80
36450;DHT22;22475;51.390;7.180;2022-12-05T03:01:01;5.90;94.80
36450;DHT22;22475;51.390;7.180;2022-12-05T03:03:29;5.90;94.90
36450;DHT22;22475;51.390;7.180;2022-12-05T03:06:01;5.90;94.90
36450;DHT22;22475;51.390;7.180;2022-12-05T03:08:35;5.90;94.90
36450;DHT22;22475;51.390;7.180;2022-12-05T03:11:03;5.90;95.00
36450;DHT22;22475;51.390;7.180;2022-12-05T03:13:34;6.00;95.00
36450;DHT22;22475;51.390;7.180;2022-12-05T03:16:07;5.90;94.90
36450;DHT22;22475;51.390;7.180;2022-12-05T03:18:40;5.90;94.90
36450;DHT22;22475;51.390;7.180;2022-12-05T03:21:09;6.00;94.90
36450;DHT22;22475;51.390;7.180;2022-12-05T03:23:42;6.00;94.90
36450;DHT22;22475;51.390;7.180;2022-12-05T03:26:17;6.00;94.90
36450;DHT22;22475;51.390;7.180;2022-12-05T03:28:56;6.00;94.80
36450;DHT22;22475;51.390;7.180;2022-12-05T03:31:36;6.00;94.90
36450;DHT22;22475;51.390;7.180;2022-12-05T03:34:06;6.00;94.90
36450;DHT22;22475;51.390;7.180;2022-12-05T03:36:38;6.00;95.00
36450;DHT22;22475;51.390;7.180;2022-12-05T03:39:12;6.00;95.00
36450;DHT22;22475;51.390;7.180;2022-12-05T03:41:48;6.00;95.00
36450;DHT22;22475;51.390;7.180;2022-12-05T03:44:23;6.00;95.00
36450;DHT22;22475;51.390;7.180;2022-12-05T03:46:55;6.00;95.00
36450;DHT22;22475;51.390;7.180;2022-12-05T03:49:27;6.00;95.00
36450;DHT22;22475;51.390;7.180;2022-12-05T03:52:02;6.00;95.00
36450;DHT22;22475;51.390;7.180;2022-12-05T03:54:33;6.00;95.00
36450;DHT22;22475;51.390;7.180;2022-12-05T03:57:06;6.00;95.00
36450;DHT22;22475;51.390;7.180;2022-12-05T03:59:37;6.00;95.00
36450;DHT22;22475;51.390;7.180;2022-12-05T04:02:10;6.00;95.00
36450;DHT22;22475;51.390;7.180;2022-12-05T04:04:43;6.00;95.10
36450;DHT22;22475;51.390;7.180;2022-12-05T04:07:13;6.00;95.10
36450;DHT22;22475;51.390;7.180;2022-12-05T04:09:44;6.00;95.10
36450;DHT22;22475;51.390;7.180;2022-12-05T04:12:18;6.00;95.10
36450;DHT22;22475;51.390;7.180;2022-12-05T04:14:49;6.00;95.10
36450;DHT22;22475;51.390;7.180;2022-12-05T04:17:20;6.10;95.10
36450;DHT22;22475;51.390;7.180;2022-12-05T04:19:49;6.10;95.20
36450;DHT22;22475;51.390;7.180;2022-12-05T04:22:36;6.10;95.00
36450;DHT22;22475;51.390;7.180;2022-12-05T04:25:05;6.10;95.00
36450;DHT22;22475;51.390;7.180;2022-12-05T04:27:55;6.10;95.00
36450;DHT22;22475;51.390;7.180;2022-12-05T04:30:29;6.00;95.00
36450;DHT22;22475;51.390;7.180;2022-12-05T04:33:04;6.00;95.10
36450;DHT22;22475;51.390;7.180;2022-12-05T04:35:34;6.00;95.10
36450;DHT22;22475;51.390;7.180;2022-12-05T04:38:05;6.00;95.10
36450;DHT22;22475;51.390;7.180;2022-12-05T04:40:38;5.90;95.10
36450;DHT22;22475;51.390;7.180;2022-12-05T04:43:07;5.90;95.20
36450;DHT22;22475;51.390;7.180;2022-12-05T04:45:37;5.90;95.20
36450;DHT22;22475;51.390;7.180;2022-12-05T04:48:10;5.90;95.20
36450;DHT22;22475;51.390;7.180;2022-12-05T04:50:38;5.90;95.30
36450;DHT22;22475;51.390;7.180;2022-12-05T04:53:09;5.90;95.30
36450;DHT22;22475;51.390;7.180;2022-12-05T04:55:39;5.90;95.30
36450;DHT22;22475;51.390;7.180;2022-12-05T04:58:09;5.90;95.30
36450;DHT22;22475;51.390;7.180;2022-12-05T05:00:45;5.90;95.40
36450;DHT22;22475;51.390;7.180;2022-12-05T05:03:19;5.90;95.40
36450;DHT22;22475;51.390;7.180;2022-12-05T05:05:49;5.90;95.40
36450;DHT22;22475;51.390;7.180;2022-12-05T05:08:18;5.90;95.40
36450;DHT22;22475;51.390;7.180;2022-12-05T05:10:51;5.90;95.30
36450;DHT22;22475;51.390;7.180;2022-12-05T05:13:20;5.90;95.30
36450;DHT22;22475;51.390;7.180;2022-12-05T05:15:47;5.90;95.40
36450;DHT22;22475;51.390;7.180;2022-12-05T05:18:15;5.90;95.40
36450;DHT22;22475;51.390;7.180;2022-12-05T05:20:41;5.90;95.40
36450;DHT22;22475;51.390;7.180;2022-12-05T05:23:08;5.90;95.40
36450;DHT22;22475;51.390;7.180;2022-12-05T05:25:35;5.90;95.40
36450;DHT22;22475;51.390;7.180;2022-12-05T05:28:02;5.90;95.40
36450;DHT22;22475;51.390;7.180;2022-12-05T05:30:28;5.90;95.40
36450;DHT22;22475;51.390;7.180;2022-12-05T05:32:55;5.90;95.40
36450;DHT22;22475;51.390;7.180;2022-12-05T05:35:25;5.90;95.40
36450;DHT22;22475;51.390;7.180;2022-12-05T05:37:52;5.90;95.40
36450;DHT22;22475;51.390;7.180;2022-12-05T05:40:19;5.90;95.40
36450;DHT22;22475;51.390;7.180;2022-12-05T05:42:47;5.90;95.50
36450;DHT22;22475;51.390;7.180;2022-12-05T05:45:15;5.90;95.50
36450;DHT22;22475;51.390;7.180;2022-12-05T05:47:42;5.90;95.50
36450;DHT22;22475;51.390;7.180;2022-12-05T05:50:10;5.90;95.50
36450;DHT22;22475;51.390;7.180;2022-12-05T05:52:38;5.90;95.50
36450;DHT22;22475;51.390;7.180;2022-12-05T05:55:06;5.90;95.50
36450;DHT22;22475;51.390;7.180;2022-12-05T05:57:33;5.90;95.50
36450;DHT22;22475;51.390;7.180;2022-12-05T06:00:00;5.90;95.50
36450;DHT22;22475;51.390;7.180;2022-12-05T06:02:31;5.90;95.50
36450;DHT22;22475;51.390;7.180;2022-12-05T06:04:57;5.90;95.50
36450;DHT22;22475;51.390;7.180;2022-12-05T06:07:25;5.90;95.50
36450;DHT22;22475;51.390;7.180;2022-12-05T06:09:53;5.90;95.50
36450;DHT22;22475;51.390;7.180;2022-12-05T06:12:20;5.90;95.50
36450;DHT22;22475;51.390;7.180;2022-12-05T06:14:47;5.90;95.50
36450;DHT22;22475;51.390;7.180;2022-12-05T06:17:14;5.80;95.50
36450;DHT22;22475;51.390;7.180;2022-12-05T06:19:41;5.80;95.50
36450;DHT22;22475;51.390;7.180;2022-12-05T06:22:08;5.80;95.50
36450;DHT22;22475;51.390;7.180;2022-12-05T06:24:35;5.80;95.50
36450;DHT22;22475;51.390;7.180;2022-12-05T06:27:03;5.80;95.50
36450;DHT22;22475;51.390;7.180;2022-12-05T06:29:30;5.80;95.50
36450;DHT22;22475;51.390;7.180;2022-12-05T06:31:57;5.80;95.60
36450;DHT22;22475;51.390;7.180;2022-12-05T06:34:23;5.70;95.50
36450;DHT22;22475;51.390;7.180;2022-12-05T06:36:50;5.70;95.60
36450;DHT22;22475;51.390;7.180;2022-12-05T06:39:17;5.70;95.60
36450;DHT22;22475;51.390;7.180;2022-12-05T06:41:43;5.70;95.60
36450;DHT22;22475;51.390;7.180;2022-12-05T06:44:12;5.70;95.60
36450;DHT22;22475;51.390;7.180;2022-12-05T06:46:38;5.70;95.60
36450;DHT22;22475;51.390;7.180;2022-12-05T06:49:05;5.70;95.60
36450;DHT22;22475;51.390;7.180;2022-12-05T06:51:32;5.70;95.60
36450;DHT22;22475;51.390;7.180;2022-12-05T06:53:58;5.70;95.60
36450;DHT22;22475;51.390;7.180;2022-12-05T06:56:25;5.70;95.60
36450;DHT22;22475;51.390;7.180;2022-12-05T06:58:53;5.70;95.60
36450;DHT22;22475;51.390;7.180;2022-12-05T07:01:23;5.70;95.60
36450;DHT22;22475;51.390;7.180;2022-12-05T07:04:10;5.70;95.60
36450;DHT22;22475;51.390;7.180;2022-12-05T07:06:37;5.70;95.90
36450;DHT22;22475;51.390;7.180;2022-12-05T07:09:05;5.70;95.60
36450;DHT22;22475;51.390;7.180;2022-12-05T07:11:32;5.70;95.60
36450;DHT22;22475;51.390;7.180;2022-12-05T07:13:58;5.70;95.60
36450;DHT22;22475;51.390;7.180;2022-12-05T07:16:26;5.70;95.60
36450;DHT22;22475;51.390;7.180;2022-12-05T07:18:53;5.70;95.70
36450;DHT22;22475;51.390;7.180;2022-12-05T07:21:20;5.70;95.70
36450;DHT22;22475;51.390;7.180;2022-12-05T07:23:48;5.60;95.60
36450;DHT22;22475;51.390;7.180;2022-12-05T07:26:18;5.60;95.70
36450;DHT22;22475;51.390;7.180;2022-12-05T07:28:45;5.60;95.70
36450;DHT22;22475;51.390;7.180;2022-12-05T07:31:15;5.60;95.70
36450;DHT22;22475;51.390;7.180;2022-12-05T07:33:43;5.60;95.70
36450;DHT22;22475;51.390;7.180;2022-12-05T07:36:12;5.60;95.70
36450;DHT22;22475;51.390;7.180;2022-12-05T07:38:40;5.60;95.70
36450;DHT22;22475;51.390;7.180;2022-12-05T07:41:08;5.60;95.80
36450;DHT22;22475;51.390;7.180;2022-12-05T07:43:35;5.60;95.80
36450;DHT22;22475;51.390;7.180;2022-12-05T07:46:03;5.60;95.80
36450;DHT22;22475;51.390;7.180;2022-12-05T07:48:30;5.60;95.80
36450;DHT22;22475;51.390;7.180;2022-12-05T07:51:02;5.60;95.80
36450;DHT22;22475;51.390;7.180;2022-12-05T07:53:29;5.60;95.80
36450;DHT22;22475;51.390;7.180;2022-12-05T07:55:58;5.60;95.80
36450;DHT22;22475;51.390;7.180;2022-12-05T07:58:25;5.50;95.80
36450;DHT22;22475;51.390;7.180;2022-12-05T08:00:53;5.60;95.80
36450;DHT22;22475;51.390;7.180;2022-12-05T08:03:20;5.60;95.80
36450;DHT22;22475;51.390;7.180;2022-12-05T08:05:46;5.60;95.80
36450;DHT22;22475;51.390;7.180;2022-12-05T08:08:15;5.60;95.90
36450;DHT22;22475;51.390;7.180;2022-12-05T08:10:41;5.50;95.80
36450;DHT22;22475;51.390;7.180;2022-12-05T08:13:08;5.60;95.90
36450;DHT22;22475;51.390;7.180;2022-12-05T08:15:35;5.50;95.90
36450;DHT22;22475;51.390;7.180;2022-12-05T08:18:02;5.50;95.90
36450;DHT22;22475;51.390;7.180;2022-12-05T08:20:28;5.50;95.90
36450;DHT22;22475;51.390;7.180;2022-12-05T08:22:55;5.50;95.90
36450;DHT22;22475;51.390;7.180;2022-12-05T08:25:23;5.50;96.00
36450;DHT22;22475;51.390;7.180;2022-12-05T08:27:50;5.50;96.00
36450;DHT22;22475;51.390;7.180;2022-12-05T08:30:17;5.50;96.00
36450;DHT22;22475;51.390;7.180;2022-12-05T08:32:44;5.50;96.00
36450;DHT22;22475;51.390;7.180;2022-12-05T08:35:11;5.50;96.00
36450;DHT22;22475;51.390;7.180;2022-12-05T08:37:38;5.50;96.00
36450;DHT22;22475;51.390;7.180;2022-12-05T08:40:05;5.50;96.10
36450;DHT22;22475;51.390;7.180;2022-12-05T08:42:34;5.50;96.10
36450;DHT22;22475;51.390;7.180;2022-12-05T08:45:00;5.50;96.00
36450;DHT22;22475;51.390;7.180;2022-12-05T08:47:28;5.50;96.00
36450;DHT22;22475;51.390;7.180;2022-12-05T08:49:54;5.50;96.00
36450;DHT22;22475;51.390;7.180;2022-12-05T08:52:21;5.50;96.00
36450;DHT22;22475;51.390;7.180;2022-12-05T08:54:48;5.50;96.00
36450;DHT22;22475;51.390;7.180;2022-12-05T08:57:16;5.50;96.00
36450;DHT22;22475;51.390;7.180;2022-12-05T08:59:44;5.50;96.00
36450;DHT22;22475;51.390;7.180;2022-12-05T09:02:10;5.50;96.10
36450;DHT22;22475;51.390;7.180;2022-12-05T09:04:37;5.50;96.10
36450;DHT22;22475;51.390;7.180;2022-12-05T09:07:04;5.50;96.10
36450;DHT22;22475;51.390;7.180;2022-12-05T09:09:32;5.50;96.10
36450;DHT22;22475;51.390;7.180;2022-12-05T09:11:59;5.50;96.20
36450;DHT22;22475;51.390;7.180;2022-12-05T09:14:26;5.50;96.20
36450;DHT22;22475;51.390;7.180;2022-12-05T09:16:58;5.50;96.20
36450;DHT22;22475;51.390;7.180;2022-12-05T09:19:26;5.50;96.20
36450;DHT22;22475;51.390;7.180;2022-12-05T09:21:53;5.60;96.10
36450;DHT22;22475;51.390;7.180;2022-12-05T09:24:20;5.50;96.00
36450;DHT22;22475;51.390;7.180;2022-12-05T09:26:46;5.50;96.00
36450;DHT22;22475;51.390;7.180;2022-12-05T09:29:13;5.50;96.00
36450;DHT22;22475;51.390;7.180;2022-12-05T09:31:41;5.60;96.40
36450;DHT22;22475;51.390;7.180;2022-12-05T09:34:09;5.60;96.10
36450;DHT22;22475;51.390;7.180;2022-12-05T09:36:37;5.60;96.10
36450;DHT22;22475;51.390;7.180;2022-12-05T09:39:05;5.60;96.10
36450;DHT22;22475;51.390;7.180;2022-12-05T09:41:46;5.60;96.00
36450;DHT22;22475;51.390;7.180;2022-12-05T09:44:43;5.60;96.00
36450;DHT22;22475;51.390;7.180;2022-12-05T09:47:13;5.60;96.00
36450;DHT22;22475;51.390;7.180;2022-12-05T09:49:48;5.60;96.00
36450;DHT22;22475;51.390;7.180;2022-12-05T09:52:22;5.60;95.90
36450;DHT22;22475;51.390;7.180;2022-12-05T09:54:51;5.60;95.90
36450;DHT22;22475;51.390;7.180;2022-12-05T09:57:23;5.60;95.90
36450;DHT22;22475;51.390;7.180;2022-12-05T09:59:54;5.60;95.90
36450;DHT22;22475;51.390;7.180;2022-12-05T10:02:26;5.60;95.90
36450;DHT22;22475;51.390;7.180;2022-12-05T10:05:01;5.60;95.90
36450;DHT22;22475;51.390;7.180;2022-12-05T10:07:35;5.60;95.90
36450;DHT22;22475;51.390;7.180;2022-12-05T10:10:17;5.60;96.00
36450;DHT22;22475;51.390;7.180;2022-12-05T10:12:56;5.60;96.00
36450;DHT22;22475;51.390;7.180;2022-12-05T10:15:30;5.60;96.00
36450;DHT22;22475;51.390;7.180;2022-12-05T10:18:00;5.60;96.10
36450;DHT22;22475;51.390;7.180;2022-12-05T10:20:34;5.60;96.10
36450;DHT22;22475;51.390;7.180;2022-12-05T10:23:04;5.60;96.00
36450;DHT22;22475;51.390;7.180;2022-12-05T10:25:32;5.60;96.10
36450;DHT22;22475;51.390;7.180;2022-12-05T10:28:05;5.60;96.10
36450;DHT22;22475;51.390;7.180;2022-12-05T10:30:38;5.60;96.20
36450;DHT22;22475;51.390;7.180;2022-12-05T10:33:14;5.60;96.20
36450;DHT22;22475;51.390;7.180;2022-12-05T10:35:43;5.60;96.10
36450;DHT22;22475;51.390;7.180;2022-12-05T10:38:13;5.60;96.10
36450;DHT22;22475;51.390;7.180;2022-12-05T10:40:44;5.60;96.10
36450;DHT22;22475;51.390;7.180;2022-12-05T10:43:15;5.60;96.10
36450;DHT22;22475;51.390;7.180;2022-12-05T10:45:48;5.60;96.10
36450;DHT22;22475;51.390;7.180;2022-12-05T10:48:17;5.60;96.10
36450;DHT22;22475;51.390;7.180;2022-12-05T10:50:46;5.60;96.10
36450;DHT22;22475;51.390;7.180;2022-12-05T10:53:16;5.50;96.10
36450;DHT22;22475;51.390;7.180;2022-12-05T10:55:46;5.50;96.10
36450;DHT22;22475;51.390;7.180;2022-12-05T10:58:15;5.50;96.10
36450;DHT22;22475;51.390;7.180;2022-12-05T11:00:45;5.50;96.10
36450;DHT22;22475;51.390;7.180;2022-12-05T11:03:23;5.50;96.10
36450;DHT22;22475;51.390;7.180;2022-12-05T11:05:54;5.50;96.10
36450;DHT22;22475;51.390;7.180;2022-12-05T11:08:22;5.40;96.10
36450;DHT22;22475;51.390;7.180;2022-12-05T11:10:59;5.40;96.10
36450;DHT22;22475;51.390;7.180;2022-12-05T11:13:27;5.40;96.10
36450;DHT22;22475;51.390;7.180;2022-12-05T11:15:53;5.40;96.10
36450;DHT22;22475;51.390;7.180;2022-12-05T11:18:27;5.30;96.10
36450;DHT22;22475;51.390;7.180;2022-12-05T11:20:56;5.30;96.10
36450;DHT22;22475;51.390;7.180;2022-12-05T11:23:33;5.40;96.20
36450;DHT22;22475;51.390;7.180;2022-12-05T11:26:00;5.30;96.20
36450;DHT22;22475;51.390;7.180;2022-12-05T11:28:34;5.30;96.20
36450;DHT22;22475;51.390;7.180;2022-12-05T11:31:05;5.30;96.20
36450;DHT22;22475;51.390;7.180;2022-12-05T11:33:34;5.30;96.20
36450;DHT22;22475;51.390;7.180;2022-12-05T11:36:09;5.30;96.30
36450;DHT22;22475;51.390;7.180;2022-12-05T11:38:38;5.30;96.30
36450;DHT22;22475;51.390;7.180;2022-12-05T11:41:29;5.40;96.30
36450;DHT22;22475;51.390;7.180;2022-12-05T11:44:21;5.40;96.30
36450;DHT22;22475;51.390;7.180;2022-12-05T11:47:01;5.40;96.20
36450;DHT22;22475;51.390;7.180;2022-12-05T11:49:51;5.40;96.20
36450;DHT22;22475;51.390;7.180;2022-12-05T11:52:28;5.40;96.20
36450;DHT22;22475;51.390;7.180;2022-12-05T11:55:12;5.40;96.10
36450;DHT22;22475;51.390;7.180;2022-12-05T11:57:58;5.30;96.10
36450;DHT22;22475;51.390;7.180;2022-12-05T12:00:34;5.30;96.10
36450;DHT22;22475;51.390;7.180;2022-12-05T12:03:29;5.30;96.20
36450;DHT22;22475;51.390;7.180;2022-12-05T12:06:11;5.30;96.20
36450;DHT22;22475;51.390;7.180;2022-12-05T12:08:51;5.30;96.20
36450;DHT22;22475;51.390;7.180;2022-12-05T12:11:22;5.30;96.10
36450;DHT22;22475;51.390;7.180;2022-12-05T12:13:59;5.20;96.10
36450;DHT22;22475;51.390;7.180;2022-12-05T12:16:33;5.20;96.00
36450;DHT22;22475;51.390;7.180;2022-12-05T12:19:10;5.20;96.10
36450;DHT22;22475;51.390;7.180;2022-12-05T12:21:54;5.20;96.10
36450;DHT22;22475;51.390;7.180;2022-12-05T12:24:32;5.10;96.10
36450;DHT22;22475;51.390;7.180;2022-12-05T12:27:14;5.10;96.20
36450;DHT22;22475;51.390;7.180;2022-12-05T12:29:53;5.10;96.20
36450;DHT22;22475;51.390;7.180;2022-12-05T12:32:31;5.10;96.10
36450;DHT22;22475;51.390;7.180;2022-12-05T12:35:18;5.10;96.10
36450;DHT22;22475;51.390;7.180;2022-12-05T12:37:52;5.10;96.10
36450;DHT22;22475;51.390;7.180;2022-12-05T12:40:29;5.00;96.10
36450;DHT22;22475;51.390;7.180;2022-12-05T12:43:04;5.00;96.10
36450;DHT22;22475;51.390;7.180;2022-12-05T12:45:59;5.00;96.10
36450;DHT22;22475;51.390;7.180;2022-12-05T12:48:39;5.00;96.20
36450;DHT22;22475;51.390;7.180;2022-12-05T12:51:12;5.00;96.10
36450;DHT22;22475;51.390;7.180;2022-12-05T12:56:42;5.00;96.10
36450;DHT22;22475;51.390;7.180;2022-12-05T12:59:34;5.00;96.10
36450;DHT22;22475;51.390;7.180;2022-12-05T13:02:12;4.90;96.20
36450;DHT22;22475;51.390;7.180;2022-12-05T13:04:47;4.90;96.10
36450;DHT22;22475;51.390;7.180;2022-12-05T13:07:19;4.90;96.10
36450;DHT22;22475;51.390;7.180;2022-12-05T13:09:49;4.80;96.10
36450;DHT22;22475;51.390;7.180;2022-12-05T13:12:23;4.90;96.20
36450;DHT22;22475;51.390;7.180;2022-12-05T13:14:53;4.80;96.10
36450;DHT22;22475;51.390;7.180;2022-12-05T13:17:22;4.80;96.10
36450;DHT22;22475;51.390;7.180;2022-12-05T13:19:50;4.80;96.20
36450;DHT22;22475;51.390;7.180;2022-12-05T13:22:19;4.80;96.30
36450;DHT22;22475;51.390;7.180;2022-12-05T13:24:49;4.80;96.30
36450;DHT22;22475;51.390;7.180;2022-12-05T13:27:18;4.80;96.30
36450;DHT22;22475;51.390;7.180;2022-12-05T13:29:48;4.80;96.30
36450;DHT22;22475;51.390;7.180;2022-12-05T13:32:37;4.80;96.40
36450;DHT22;22475;51.390;7.180;2022-12-05T13:35:08;4.80;96.40
36450;DHT22;22475;51.390;7.180;2022-12-05T13:37:36;4.90;96.40
36450;DHT22;22475;51.390;7.180;2022-12-05T13:40:29;4.90;96.40
36450;DHT22;22475;51.390;7.180;2022-12-05T13:43:17;4.90;96.30
36450;DHT22;22475;51.390;7.180;2022-12-05T13:46:00;4.90;96.30
36450;DHT22;22475;51.390;7.180;2022-12-05T13:48:30;4.90;96.30
36450;DHT22;22475;51.390;7.180;2022-12-05T13:51:01;5.00;96.30
36450;DHT22;22475;51.390;7.180;2022-12-05T13:53:35;5.00;96.30
36450;DHT22;22475;51.390;7.180;2022-12-05T13:56:04;4.90;96.30
36450;DHT22;22475;51.390;7.180;2022-12-05T13:58:45;4.90;96.30
36450;DHT22;22475;51.390;7.180;2022-12-05T14:01:42;4.90;96.30
36450;DHT22;22475;51.390;7.180;2022-12-05T14:07:08;4.90;96.20
36450;DHT22;22475;51.390;7.180;2022-12-05T14:09:49;4.90;96.20
36450;DHT22;22475;51.390;7.180;2022-12-05T14:12:30;4.90;96.30
36450;DHT22;22475;51.390;7.180;2022-12-05T14:15:25;4.90;96.30
36450;DHT22;22475;51.390;7.180;2022-12-05T14:17:56;4.90;96.30
36450;DHT22;22475;51.390;7.180;2022-12-05T14:20:30;4.90;96.20
36450;DHT22;22475;51.390;7.180;2022-12-05T14:23:06;4.90;96.30
36450;DHT22;22475;51.390;7.180;2022-12-05T14:25:50;4.90;96.30
36450;DHT22;22475;51.390;7.180;2022-12-05T14:28:34;4.90;96.30
36450;DHT22;22475;51.390;7.180;2022-12-05T14:31:17;4.90;96.40
36450;DHT22;22475;51.390;7.180;2022-12-05T14:36:59;4.90;96.30
36450;DHT22;22475;51.390;7.180;2022-12-05T14:39:32;4.90;96.40
36450;DHT22;22475;51.390;7.180;2022-12-05T14:42:00;4.90;96.40
36450;DHT22;22475;51.390;7.180;2022-12-05T14:44:29;4.90;96.50
36450;DHT22;22475;51.390;7.180;2022-12-05T14:47:00;5.00;96.50
36450;DHT22;22475;51.390;7.180;2022-12-05T14:49:34;4.90;96.40
36450;DHT22;22475;51.390;7.180;2022-12-05T14:52:09;4.90;96.30
36450;DHT22;22475;51.390;7.180;2022-12-05T14:54:37;4.90;96.40
36450;DHT22;22475;51.390;7.180;2022-12-05T14:57:10;4.90;96.40
36450;DHT22;22475;51.390;7.180;2022-12-05T14:59:44;4.90;96.40
36450;DHT22;22475;51.390;7.180;2022-12-05T15:02:21;4.80;96.30
36450;DHT22;22475;51.390;7.180;2022-12-05T15:04:52;4.80;96.30
36450;DHT22;22475;51.390;7.180;2022-12-05T15:07:28;4.80;96.30
36450;DHT22;22475;51.390;7.180;2022-12-05T15:09:57;4.80;96.40
36450;DHT22;22475;51.390;7.180;2022-12-05T15:12:27;4.80;96.30
36450;DHT22;22475;51.390;7.180;2022-12-05T15:15:00;4.80;96.30
36450;DHT22;22475;51.390;7.180;2022-12-05T15:17:37;4.80;96.40
36450;DHT22;22475;51.390;7.180;2022-12-05T15:20:10;4.80;96.40
36450;DHT22;22475;51.390;7.180;2022-12-05T15:22:39;4.80;96.40
36450;DHT22;22475;51.390;7.180;2022-12-05T15:25:34;4.80;96.40
36450;DHT22;22475;51.390;7.180;2022-12-05T15:28:03;4.80;96.40
36450;DHT22;22475;51.390;7.180;2022-12-05T15:30:33;4.90;96.40
36450;DHT22;22475;51.390;7.180;2022-12-05T15:33:02;4.80;96.40
36450;DHT22;22475;51.390;7.180;2022-12-05T15:35:31;4.90;96.40
36450;DHT22;22475;51.390;7.180;2022-12-05T15:38:01;4.90;96.30
36450;DHT22;22475;51.390;7.180;2022-12-05T15:40:33;4.90;96.40
36450;DHT22;22475;51.390;7.180;2022-12-05T15:43:28;4.80;96.20
36450;DHT22;22475;51.390;7.180;2022-12-05T15:46:13;4.80;96.30
36450;DHT22;22475;51.390;7.180;2022-12-05T15:48:45;4.80;96.30
36450;DHT22;22475;51.390;7.180;2022-12-05T15:51:12;4.80;96.30
36450;DHT22;22475;51.390;7.180;2022-12-05T15:53:41;4.80;96.30
36450;DHT22;22475;51.390;7.180;2022-12-05T15:56:13;4.80;96.40
36450;DHT22;22475;51.390;7.180;2022-12-05T15:58:44;4.80;96.40
36450;DHT22;22475;51.390;7.180;2022-12-05T16:01:17;4.80;96.40
36450;DHT22;22475;51.390;7.180;2022-12-05T16:03:50;4.80;96.40
36450;DHT22;22475;51.390;7.180;2022-12-05T16:06:22;4.80;96.40
36450;DHT22;22475;51.390;7.180;2022-12-05T16:08:50;4.80;96.40
36450;DHT22;22475;51.390;7.180;2022-12-05T16:11:17;4.80;96.30
36450;DHT22;22475;51.390;7.180;2022-12-05T16:13:46;4.80;96.40
36450;DHT22;22475;51.390;7.180;2022-12-05T16:16:15;4.80;96.40
36450;DHT22;22475;51.390;7.180;2022-12-05T16:18:52;4.80;96.40
36450;DHT22;22475;51.390;7.180;2022-12-05T16:21:28;4.80;96.40